createdAt,value
2022-08-11T00:01:26.222Z,98206.35
2022-08-11T00:04:00.751Z,98199.31
2022-08-11T00:06:38.760Z,98199.17
2022-08-11T00:09:15.906Z,98196.89
2022-08-11T00:11:54.764Z,98196.79
2022-08-11T00:14:37.592Z,98195.10
2022-08-11T00:17:14.332Z,98198.63
2022-08-11T00:20:13.977Z,98201.42
2022-08-11T00:22:34.530Z,98201.48
2022-08-11T00:25:11.491Z,98204.58
2022-08-11T00:27:41.097Z,98205.67
2022-08-11T00:30:11.273Z,98207.66
2022-08-11T00:32:42.141Z,98204.13
2022-08-11T00:35:53.663Z,98206.06
2022-08-11T00:38:03.250Z,98207.63
2022-08-11T00:40:43.808Z,98206.35
2022-08-11T00:43:37.547Z,98208.05
2022-08-11T00:46:38.404Z,98208.91
2022-08-11T00:49:37.785Z,98207.24
2022-08-11T00:52:28.545Z,98213.53
2022-08-11T00:55:01.068Z,98214.11
2022-08-11T00:58:22.465Z,98213.31
2022-08-11T01:01:10.728Z,98213.96
2022-08-11T01:04:11.194Z,98214.23
2022-08-11T01:08:02.098Z,98212.23
2022-08-11T01:10:40.345Z,98206.10
2022-08-11T01:13:47.819Z,98209.80
2022-08-11T01:16:38.211Z,98207.55
2022-08-11T01:19:31.880Z,98204.69
2022-08-11T01:22:33.476Z,98203.06
2022-08-11T01:25:34.387Z,98203.70
2022-08-11T01:28:48.589Z,98204.89
2022-08-11T01:32:13.044Z,98202.88
2022-08-11T01:35:21.402Z,98197.46
2022-08-11T01:38:31.983Z,98198.09
2022-08-11T01:41:13.732Z,98194.67
2022-08-11T01:44:24.144Z,98194.96
2022-08-11T01:47:35.273Z,98189.95
2022-08-11T01:50:42.486Z,98187.77
2022-08-11T01:53:12.217Z,98193.34
2022-08-11T01:56:03.549Z,98190.09
2022-08-11T01:59:05.576Z,98188.14
2022-08-11T02:02:12.543Z,98189.50
2022-08-11T02:05:13.644Z,98192.36
2022-08-11T02:08:03.471Z,98192.30
2022-08-11T02:11:10.070Z,98191.04
2022-08-11T02:14:11.672Z,98189.70
2022-08-11T02:17:03.016Z,98193.58
2022-08-11T02:20:44.385Z,98188.59
2022-08-11T02:24:04.858Z,98186.55
2022-08-11T02:27:04.693Z,98183.39
2022-08-11T02:29:42.643Z,98180.17
2022-08-11T02:32:50.028Z,98178.02
2022-08-11T02:35:36.075Z,98174.98
2022-08-11T02:38:48.765Z,98178.85
2022-08-11T02:41:59.745Z,98178.60
2022-08-11T02:44:35.463Z,98183.14
2022-08-11T02:47:27.644Z,98184.70
2022-08-11T02:50:07.229Z,98186.23
2022-08-11T02:52:59.045Z,98180.73
2022-08-11T02:55:55.593Z,98184.69
2022-08-11T02:58:27.325Z,98183.96
2022-08-11T03:01:12.530Z,98188.14
2022-08-11T03:04:01.041Z,98190.05
2022-08-11T03:06:52.508Z,98190.48
2022-08-11T03:09:58.169Z,98190.69
2022-08-11T03:13:30.996Z,98188.02
2022-08-11T03:16:42.180Z,98186.09
2022-08-11T03:19:53.295Z,98190.20
2022-08-11T03:22:33.702Z,98192.61
2022-08-11T03:25:15.144Z,98193.77
2022-08-11T03:27:59.872Z,98195.20
2022-08-11T03:30:43.509Z,98194.17
2022-08-11T03:33:43.889Z,98195.45
2022-08-11T03:37:14.817Z,98189.51
2022-08-11T03:39:52.690Z,98185.25
2022-08-11T03:42:29.585Z,98185.16
2022-08-11T03:45:40.996Z,98183.16
2022-08-11T03:48:45.836Z,98178.76
2022-08-11T03:51:44.532Z,98179.06
2022-08-11T03:54:30.732Z,98179.81
2022-08-11T03:57:23.664Z,98182.21
2022-08-11T04:00:46.681Z,98182.39
2022-08-11T04:03:31.065Z,98186.41
2022-08-11T04:06:40.740Z,98182.84
2022-08-11T04:09:54.241Z,98180.33
2022-08-11T04:13:17.570Z,98178.43
2022-08-11T04:16:11.486Z,98183.93
2022-08-11T04:19:19.579Z,98181.59
2022-08-11T04:21:55.080Z,98178.67
2022-08-11T04:24:50.544Z,98178.86
2022-08-11T04:28:00.652Z,98178.33
2022-08-11T04:31:12.512Z,98174.71
2022-08-11T04:34:46.612Z,98180.23
2022-08-11T04:37:40.652Z,98177.06
2022-08-11T04:41:16.701Z,98180.70
2022-08-11T04:44:31.196Z,98180.85
2022-08-11T04:48:09.527Z,98181.38
2022-08-11T04:51:17.986Z,98184.92
2022-08-11T04:54:28.753Z,98183.73
2022-08-11T04:57:40.219Z,98185.70
2022-08-11T05:00:30.778Z,98184.80
2022-08-11T05:03:03.868Z,98188.85
2022-08-11T05:05:57.541Z,98185.55
2022-08-11T05:09:07.817Z,98190.94
2022-08-11T05:12:09.463Z,98192.07
2022-08-11T05:15:10.802Z,98191.84
2022-08-11T05:18:14.105Z,98184.25
2022-08-11T05:21:07.931Z,98184.32
2022-08-11T05:23:59.357Z,98184.52
2022-08-11T05:26:49.379Z,98179.98
2022-08-11T05:29:53.884Z,98186.34
2022-08-11T05:32:42.141Z,98183.23
2022-08-11T05:35:10.132Z,98179.70
2022-08-11T05:38:05.280Z,98178.84
2022-08-11T05:40:53.240Z,98179.08
2022-08-11T05:44:21.144Z,98175.48
2022-08-11T05:47:00.860Z,98169.67
2022-08-11T05:49:50.176Z,98166.85
2022-08-11T05:52:43.304Z,98168.92
2022-08-11T05:55:28.925Z,98169.44
2022-08-11T05:58:01.755Z,98167.39
2022-08-11T06:00:29.479Z,98168.04
2022-08-11T06:03:03.396Z,98168.48
2022-08-11T06:05:43.261Z,98166.23
2022-08-11T06:08:14.236Z,98165.70
2022-08-11T06:10:44.137Z,98159.89
2022-08-11T06:13:16.378Z,98159.59
2022-08-11T06:15:49.298Z,98163.95
2022-08-11T06:18:16.656Z,98159.81
2022-08-11T06:20:57.672Z,98159.71
2022-08-11T06:23:31.641Z,98162.94
2022-08-11T06:26:00.640Z,98163.42
2022-08-11T06:28:35.769Z,98161.56
2022-08-11T06:31:13.694Z,98159.73
2022-08-11T06:33:49.992Z,98157.13
2022-08-11T06:36:27.729Z,98158.58
2022-08-11T06:39:28.722Z,98157.96
2022-08-11T06:42:10.885Z,98157.95
2022-08-11T06:45:04.576Z,98161.07
2022-08-11T06:47:32.016Z,98163.33
2022-08-11T06:50:18.907Z,98161.97
2022-08-11T06:52:47.269Z,98162.43
2022-08-11T06:55:57.812Z,98162.77
2022-08-11T06:58:49.201Z,98159.58
2022-08-11T07:01:36.468Z,98163.92
2022-08-11T07:04:09.871Z,98161.61
2022-08-11T07:07:30.154Z,98156.58
2022-08-11T07:10:49.257Z,98159.24
2022-08-11T07:13:44.434Z,98159.98
2022-08-11T07:16:26.753Z,98161.60
2022-08-11T07:19:23.488Z,98159.92
2022-08-11T07:22:09.989Z,98151.52
2022-08-11T07:25:02.329Z,98146.09
2022-08-11T07:29:03.929Z,98148.81
2022-08-11T07:31:52.652Z,98146.15
2022-08-11T07:34:27.412Z,98142.24
2022-08-11T07:36:58.256Z,98137.92
2022-08-11T07:39:32.645Z,98137.21
2022-08-11T07:42:06.286Z,98137.21
2022-08-11T07:44:54.562Z,98136.71
2022-08-11T07:47:41.378Z,98134.13
2022-08-11T07:50:28.670Z,98130.61
2022-08-11T07:53:00.235Z,98123.84
2022-08-11T07:55:50.873Z,98122.81
2022-08-11T07:58:41.455Z,98122.17
2022-08-11T08:01:37.606Z,98119.61
2022-08-11T08:04:25.677Z,98121.69
2022-08-11T08:07:11.868Z,98120.42
2022-08-11T08:09:58.612Z,98116.42
2022-08-11T08:12:44.729Z,98114.05
2022-08-11T08:15:33.879Z,98111.95
2022-08-11T08:18:09.106Z,98103.52
2022-08-11T08:20:54.524Z,98100.18
2022-08-11T08:23:35.324Z,98095.16
2022-08-11T08:26:29.854Z,98094.44
2022-08-11T08:29:19.777Z,98089.84
2022-08-11T08:31:50.516Z,98088.79
2022-08-11T08:34:18.861Z,98089.27
2022-08-11T08:36:48.256Z,98088.63
2022-08-11T08:39:20.087Z,98081.58
2022-08-11T08:41:53.929Z,98079.64
2022-08-11T08:44:41.151Z,98081.70
2022-08-11T08:47:41.451Z,98082.74
2022-08-11T08:50:19.073Z,98083.71
2022-08-11T08:53:04.740Z,98087.31
2022-08-11T08:55:33.098Z,98084.19
2022-08-11T08:58:00.701Z,98085.61
2022-08-11T09:00:41.990Z,98079.93
2022-08-11T09:03:38.192Z,98081.50
2022-08-11T09:05:57.966Z,98076.11
2022-08-11T09:08:25.325Z,98071.77
2022-08-11T09:11:14.209Z,98070.83
2022-08-11T09:13:45.350Z,98069.33
2022-08-11T09:16:13.338Z,98068.15
2022-08-11T09:18:45.694Z,98067.57
2022-08-11T09:21:15.059Z,98065.40
2022-08-11T09:24:26.367Z,98061.89
2022-08-11T09:27:00.599Z,98058.75
2022-08-11T09:29:30.417Z,98059.93
2022-08-11T09:31:59.517Z,98058.81
2022-08-11T09:34:27.801Z,98059.02
2022-08-11T09:37:28.497Z,98060.30
2022-08-11T09:40:21.792Z,98058.46
2022-08-11T09:43:22.732Z,98054.33
2022-08-11T09:45:53.404Z,98060.93
2022-08-11T09:48:24.639Z,98058.17
2022-08-11T09:50:56.406Z,98048.91
2022-08-11T09:53:35.874Z,98048.99
2022-08-11T09:56:35.297Z,98048.55
2022-08-11T09:59:05.315Z,98045.38
2022-08-11T10:01:58.549Z,98048.06
2022-08-11T10:04:40.909Z,98039.35
2022-08-11T10:07:10.269Z,98039.39
2022-08-11T10:09:50.559Z,98038.94
2022-08-11T10:12:35.481Z,98036.53
2022-08-11T10:15:36.477Z,98038.48
2022-08-11T10:18:27.326Z,98039.35
2022-08-11T10:21:06.393Z,98042.24
2022-08-11T10:24:01.437Z,98042.11
2022-08-11T10:26:53.848Z,98031.67
2022-08-11T10:30:07.826Z,98035.48
2022-08-11T10:32:58.709Z,98036.20
2022-08-11T10:35:29.890Z,98032.48
2022-08-11T10:38:07.783Z,98032.74
2022-08-11T10:40:44.645Z,98027.91
2022-08-11T10:43:14.548Z,98023.00
2022-08-11T10:46:27.550Z,98029.06
2022-08-11T10:48:59.928Z,98020.19
2022-08-11T10:51:51.212Z,98019.09
2022-08-11T10:54:40.764Z,98013.11
2022-08-11T10:57:27.913Z,98005.82
2022-08-11T10:59:58.250Z,98004.90
2022-08-11T11:02:29.436Z,98004.90
2022-08-11T11:05:11.782Z,98010.02
2022-08-11T11:07:50.172Z,98007.17
2022-08-11T11:10:17.194Z,98005.54
2022-08-11T11:13:13.596Z,98002.70
2022-08-11T11:16:04.840Z,98000.52
2022-08-11T11:18:36.122Z,97999.67
2022-08-11T11:21:14.963Z,97992.85
2022-08-11T11:24:10.414Z,97989.19
2022-08-11T11:27:04.689Z,97978.71
2022-08-11T11:30:02.936Z,97983.60
2022-08-11T11:32:52.829Z,97976.63
2022-08-11T11:35:50.401Z,97970.77
2022-08-11T11:38:18.372Z,97972.31
2022-08-11T11:41:06.621Z,97969.54
2022-08-11T11:43:35.520Z,97965.48
2022-08-11T11:46:06.153Z,97969.80
2022-08-11T11:48:35.204Z,97969.31
2022-08-11T11:51:02.972Z,97972.17
2022-08-11T11:53:30.441Z,97968.45
2022-08-11T11:55:59.192Z,97965.98
2022-08-11T11:58:46.372Z,97963.95
2022-08-11T12:01:19.206Z,97960.49
2022-08-11T12:03:50.290Z,97963.69
2022-08-11T12:06:20.696Z,97958.23
2022-08-11T12:08:54.921Z,97959.30
2022-08-11T12:11:43.674Z,97953.48
2022-08-11T12:14:11.911Z,97952.98
2022-08-11T12:16:42.776Z,97946.94
2022-08-11T12:19:17.705Z,97941.58
2022-08-11T12:22:04.888Z,97942.16
2022-08-11T12:24:52.685Z,97939.30
2022-08-11T12:27:24.247Z,97934.66
2022-08-11T12:30:08.681Z,97937.70
2022-08-11T12:32:38.164Z,97930.80
2022-08-11T12:35:06.791Z,97929.91
2022-08-11T12:37:51.391Z,97922.50
2022-08-11T12:41:13.751Z,97921.16
2022-08-11T12:43:56.870Z,97918.85
2022-08-11T12:46:39.220Z,97916.33
2022-08-11T12:49:44.753Z,97912.48
2022-08-11T12:52:25.950Z,97913.87
2022-08-11T12:55:13.509Z,97909.14
2022-08-11T12:58:06.242Z,97904.52
2022-08-11T13:00:52.041Z,97902.73
2022-08-11T13:03:39.243Z,97906.11
2022-08-11T13:06:08.553Z,97911.34
2022-08-11T13:08:38.833Z,97905.23
2022-08-11T13:11:56.776Z,97898.30
2022-08-11T13:14:15.505Z,97904.05
2022-08-11T13:17:02.879Z,97907.23
2022-08-11T13:19:30.984Z,97903.49
2022-08-11T13:22:00.196Z,97901.70
2022-08-11T13:24:28.080Z,97897.77
2022-08-11T13:26:55.776Z,97898.84
2022-08-11T13:29:25.916Z,97891.02
2022-08-11T13:31:58.026Z,97891.70
2022-08-11T13:34:28.221Z,97882.16
2022-08-11T13:37:00.293Z,97884.56
2022-08-11T13:39:30.583Z,97888.45
2022-08-11T13:42:01.030Z,97884.96
2022-08-11T13:44:36.434Z,97885.76
2022-08-11T13:47:07.306Z,97876.83
2022-08-11T13:49:40.530Z,97876.99
2022-08-11T13:52:16.195Z,97867.52
2022-08-11T13:54:47.558Z,97869.88
2022-08-11T13:58:08.699Z,97867.90
2022-08-11T14:00:13.181Z,97870.11
2022-08-11T14:02:56.646Z,97875.67
2022-08-11T14:05:38.562Z,97868.08
2022-08-11T14:08:32.428Z,97875.22
2022-08-11T14:12:20.542Z,97874.63
2022-08-11T14:14:16.425Z,97876.08
2022-08-11T14:16:44.789Z,97879.36
2022-08-11T14:19:14.524Z,97877.29
2022-08-11T14:22:07.355Z,97876.39
2022-08-11T14:24:48.895Z,97874.42
2022-08-11T14:28:15.495Z,97874.84
2022-08-11T14:30:26.348Z,97881.02
2022-08-11T14:32:56.223Z,97879.02
2022-08-11T14:35:28.378Z,97876.42
2022-08-11T14:37:58.261Z,97878.92
2022-08-11T14:40:44.213Z,97878.06
2022-08-11T14:44:12.343Z,97878.41
2022-08-11T14:46:36.599Z,97875.48
2022-08-11T14:49:04.286Z,97878.12
2022-08-11T14:51:33.565Z,97873.81
2022-08-11T14:54:18.854Z,97879.05
2022-08-11T14:56:45.989Z,97875.86
2022-08-11T14:59:13.703Z,97869.46
2022-08-11T15:02:00.358Z,97867.00
2022-08-11T15:04:35.923Z,97865.77
2022-08-11T15:07:05.034Z,97866.81
2022-08-11T15:10:09.751Z,97867.62
2022-08-11T15:12:33.944Z,97863.88
2022-08-11T15:15:22.992Z,97858.34
2022-08-11T15:17:53.469Z,97859.34
2022-08-11T15:20:40.695Z,97852.30
2022-08-11T15:23:26.144Z,97851.90
2022-08-11T15:26:11.413Z,97848.77
2022-08-11T15:29:09.170Z,97846.04
2022-08-11T15:31:56.614Z,97848.13
2022-08-11T15:34:47.382Z,97840.43
2022-08-11T15:37:27.368Z,97834.54
2022-08-11T15:40:32.995Z,97836.71
2022-08-11T15:43:44.388Z,97834.86
2022-08-11T15:46:17.461Z,97835.95
2022-08-11T15:49:23.898Z,97833.83
2022-08-11T15:52:03.409Z,97833.46
2022-08-11T15:54:33.086Z,97830.95
2022-08-11T15:57:02.512Z,97831.61
2022-08-11T15:59:51.544Z,97832.38
2022-08-11T16:02:41.104Z,97833.89
2022-08-11T16:05:12.913Z,97833.19
2022-08-11T16:07:42.327Z,97831.85
2022-08-11T16:10:20.972Z,97831.81
2022-08-11T16:13:07.192Z,97835.04
2022-08-11T16:16:02.005Z,97837.81
2022-08-11T16:18:41.878Z,97839.48
2022-08-11T16:21:34.053Z,97842.60
2022-08-11T16:26:17.616Z,97842.56
2022-08-11T16:27:11.034Z,97842.11
2022-08-11T16:29:47.350Z,97843.95
2022-08-11T16:32:21.502Z,97842.17
2022-08-11T16:35:16.698Z,97847.60
2022-08-11T16:38:04.940Z,97842.99
2022-08-11T16:40:33.968Z,97845.80
2022-08-11T16:43:23.639Z,97847.80
2022-08-11T16:46:10.764Z,97842.26
2022-08-11T16:48:40.852Z,97843.02
2022-08-11T16:51:11.537Z,97841.39
2022-08-11T16:53:59.726Z,97844.77
2022-08-11T16:56:41.640Z,97844.98
2022-08-11T16:59:16.739Z,97844.79
2022-08-11T17:01:58.576Z,97849.77
2022-08-11T17:05:11.447Z,97851.17
2022-08-11T17:08:02.247Z,97850.21
2022-08-11T17:11:14.703Z,97847.71
2022-08-11T17:14:01.101Z,97846.44
2022-08-11T17:16:41.099Z,97846.86
2022-08-11T17:20:42.417Z,97849.16
2022-08-11T17:23:13.229Z,97854.45
2022-08-11T17:25:59.156Z,97859.02
2022-08-11T17:28:30.196Z,97860.67
2022-08-11T17:31:21.793Z,97859.45
2022-08-11T17:34:09.957Z,97858.81
2022-08-11T17:36:41.663Z,97863.88
2022-08-11T17:39:13.820Z,97863.07
2022-08-11T17:42:01.333Z,97863.98
2022-08-11T17:44:47.923Z,97870.36
2022-08-11T17:47:36.111Z,97873.85
2022-08-11T17:50:14.651Z,97874.96
2022-08-11T17:53:05.698Z,97876.70
2022-08-11T17:55:53.964Z,97878.04
2022-08-11T17:58:41.380Z,97880.05
2022-08-11T18:01:10.582Z,97878.58
2022-08-11T18:03:57.841Z,97880.32
2022-08-11T18:06:34.203Z,97883.05
2022-08-11T18:09:26.444Z,97885.88
2022-08-11T18:12:13.993Z,97891.35
2022-08-11T18:15:05.416Z,97893.48
2022-08-11T18:17:52.609Z,97897.27
2022-08-11T18:20:38.577Z,97898.63
2022-08-11T18:23:46.325Z,97906.13
2022-08-11T18:26:38.656Z,97911.60
2022-08-11T18:29:26.518Z,97912.63
2022-08-11T18:32:21.811Z,97916.61
2022-08-11T18:35:14.709Z,97921.23
2022-08-11T18:38:07.154Z,97927.48
2022-08-11T18:40:54.818Z,97934.77
2022-08-11T18:43:43.965Z,97930.21
2022-08-11T18:46:34.096Z,97933.06
2022-08-11T18:50:02.334Z,97938.38
2022-08-11T18:52:37.502Z,97941.59
2022-08-11T18:55:29.719Z,97946.23
2022-08-11T18:58:18.679Z,97948.00
2022-08-11T19:01:06.111Z,97950.01
2022-08-11T19:03:53.432Z,97954.48
2022-08-11T19:06:42.057Z,97953.77
2022-08-11T19:09:32.377Z,97955.18
2022-08-11T19:12:19.857Z,97957.13
2022-08-11T19:15:08.660Z,97962.01
2022-08-11T19:17:58.242Z,97966.23
2022-08-11T19:20:47.530Z,97970.64
2022-08-11T19:23:38.396Z,97969.00
2022-08-11T19:26:25.897Z,97964.16
2022-08-11T19:30:06.981Z,97964.55
2022-08-11T19:32:19.485Z,97970.72
2022-08-11T19:35:05.988Z,97974.13
2022-08-11T19:37:53.856Z,97972.41
2022-08-11T19:40:40.532Z,97975.16
2022-08-11T19:43:27.786Z,97979.79
2022-08-11T19:46:17.044Z,97983.20
2022-08-11T19:49:07.856Z,97978.77
2022-08-11T19:51:55.448Z,97978.77
2022-08-11T19:54:47.429Z,97980.80
2022-08-11T19:57:39.668Z,97978.79
2022-08-11T20:00:35.084Z,97983.54
2022-08-11T20:03:26.013Z,97982.13
2022-08-11T20:06:15.418Z,97983.84
2022-08-11T20:09:03.635Z,97988.29
2022-08-11T20:11:59.405Z,97991.01
2022-08-11T20:14:49.773Z,97990.27
2022-08-11T20:17:36.213Z,97991.23
2022-08-11T20:20:26.823Z,97992.06
2022-08-11T20:23:18.736Z,97989.93
2022-08-11T20:26:27.851Z,97992.31
2022-08-11T20:29:13.352Z,97993.08
2022-08-11T20:32:00.167Z,97999.02
2022-08-11T20:34:50.480Z,98005.38
2022-08-11T20:37:40.019Z,98012.50
2022-08-11T20:40:27.346Z,98008.48
2022-08-11T20:44:06.738Z,98015.11
2022-08-11T20:46:24.713Z,98017.43
2022-08-11T20:49:12.852Z,98017.20
2022-08-11T20:51:59.288Z,98023.03
2022-08-11T20:54:46.063Z,98026.42
2022-08-11T20:58:04.126Z,98029.19
2022-08-11T21:00:44.063Z,98032.80
2022-08-11T21:03:36.285Z,98036.66
2022-08-11T21:06:33.261Z,98033.09
2022-08-11T21:09:58.654Z,98035.01
2022-08-11T21:15:47.631Z,98044.43
2022-08-11T21:18:34.209Z,98042.55
2022-08-11T21:21:26.231Z,98041.13
2022-08-11T21:24:13.514Z,98042.95
2022-08-11T21:27:05.926Z,98049.95
2022-08-11T21:29:56.701Z,98053.23
2022-08-11T21:32:42.651Z,98050.33
2022-08-11T21:35:29.415Z,98057.88
2022-08-11T21:38:16.683Z,98061.08
2022-08-11T21:41:03.653Z,98063.64
2022-08-11T21:43:50.694Z,98069.78
2022-08-11T21:46:41.793Z,98070.41
2022-08-11T21:49:29.309Z,98073.15
2022-08-11T21:52:15.127Z,98076.38
2022-08-11T21:55:01.516Z,98073.73
2022-08-11T21:57:50.087Z,98075.09
2022-08-11T22:00:35.729Z,98071.82
2022-08-11T22:03:23.170Z,98074.80
2022-08-11T22:06:09.563Z,98075.55
2022-08-11T22:08:54.696Z,98079.77
2022-08-11T22:11:40.457Z,98088.02
2022-08-11T22:14:26.001Z,98089.27
2022-08-11T22:17:11.412Z,98089.36
2022-08-11T22:20:00.673Z,98091.31
2022-08-11T22:22:51.874Z,98086.64
2022-08-11T22:25:51.663Z,98090.14
2022-08-11T22:28:41.000Z,98092.23
2022-08-11T22:31:29.591Z,98093.01
2022-08-11T22:34:15.166Z,98095.02
2022-08-11T22:37:02.660Z,98088.65
2022-08-11T22:40:02.574Z,98090.85
2022-08-11T22:42:52.136Z,98090.77
2022-08-11T22:45:38.829Z,98089.13
2022-08-11T22:48:27.157Z,98092.56
2022-08-11T22:51:15.703Z,98090.09
2022-08-11T22:54:02.678Z,98091.63
2022-08-11T22:56:49.968Z,98093.24
2022-08-11T22:59:37.495Z,98092.30
2022-08-11T23:02:25.116Z,98088.88
2022-08-11T23:05:11.722Z,98087.77
2022-08-11T23:07:57.542Z,98087.16
2022-08-11T23:10:44.856Z,98086.95
2022-08-11T23:13:31.825Z,98083.67
2022-08-11T23:16:18.005Z,98080.33
2022-08-11T23:19:04.367Z,98081.41
2022-08-11T23:21:52.150Z,98078.89
2022-08-11T23:24:39.180Z,98078.96
2022-08-11T23:27:27.322Z,98080.38
2022-08-11T23:30:18.865Z,98082.55
2022-08-11T23:33:11.907Z,98078.91
2022-08-11T23:36:05.336Z,98075.25
2022-08-11T23:38:51.573Z,98078.36
2022-08-11T23:41:37.546Z,98081.36
2022-08-11T23:44:24.936Z,98083.06
2022-08-11T23:47:16.925Z,98086.85
2022-08-11T23:50:04.399Z,98085.36
2022-08-11T23:52:53.483Z,98083.27
2022-08-11T23:55:40.035Z,98086.73
2022-08-11T23:58:27.245Z,98086.15
